sensor_id;sensor_type;location;lat;lon;timestamp;P1;durP1;ratioP1;P2;durP2;ratioP2
64641;SDS011;59936;51.490;5.436;2022-11-04T00:03:20;12.50;;;9.68;;
64641;SDS011;59936;51.490;5.436;2022-11-04T00:08:22;11.73;;;9.02;;
64641;SDS011;59936;51.490;5.436;2022-11-04T00:13:27;14.10;;;9.60;;
64641;SDS011;59936;51.490;5.436;2022-11-04T00:18:30;16.98;;;10.00;;
64641;SDS011;59936;51.490;5.436;2022-11-04T00:23:32;10.27;;;7.55;;
64641;SDS011;59936;51.490;5.436;2022-11-04T00:28:51;10.27;;;7.63;;
64641;SDS011;59936;51.490;5.436;2022-11-04T00:33:56;11.70;;;8.35;;
64641;SDS011;59936;51.490;5.436;2022-11-04T00:38:59;12.25;;;7.07;;
64641;SDS011;59936;51.490;5.436;2022-11-04T00:44:01;10.23;;;7.55;;
64641;SDS011;59936;51.490;5.436;2022-11-04T00:49:06;8.82;;;7.68;;
64641;SDS011;59936;51.490;5.436;2022-11-04T00:54:08;13.00;;;9.05;;
64641;SDS011;59936;51.490;5.436;2022-11-04T00:59:10;15.43;;;8.80;;
64641;SDS011;59936;51.490;5.436;2022-11-04T01:04:13;13.60;;;9.18;;
64641;SDS011;59936;51.490;5.436;2022-11-04T01:09:15;10.32;;;7.38;;
64641;SDS011;59936;51.490;5.436;2022-11-04T01:14:16;17.08;;;9.35;;
64641;SDS011;59936;51.490;5.436;2022-11-04T01:19:20;14.57;;;9.20;;
64641;SDS011;59936;51.490;5.436;2022-11-04T01:24:22;15.20;;;9.77;;
64641;SDS011;59936;51.490;5.436;2022-11-04T01:29:24;13.40;;;8.77;;
64641;SDS011;59936;51.490;5.436;2022-11-04T01:34:29;16.65;;;9.23;;
64641;SDS011;59936;51.490;5.436;2022-11-04T01:39:30;11.38;;;7.28;;
64641;SDS011;59936;51.490;5.436;2022-11-04T01:44:45;11.18;;;6.05;;
64641;SDS011;59936;51.490;5.436;2022-11-04T01:49:55;11.40;;;6.55;;
64641;SDS011;59936;51.490;5.436;2022-11-04T01:55:05;10.93;;;6.05;;
64641;SDS011;59936;51.490;5.436;2022-11-04T02:00:11;14.85;;;5.72;;
64641;SDS011;59936;51.490;5.436;2022-11-04T02:05:16;12.15;;;5.82;;
64641;SDS011;59936;51.490;5.436;2022-11-04T02:10:19;13.63;;;5.38;;
64641;SDS011;59936;51.490;5.436;2022-11-04T02:15:28;9.05;;;4.72;;
64641;SDS011;59936;51.490;5.436;2022-11-04T02:20:58;10.35;;;4.53;;
64641;SDS011;59936;51.490;5.436;2022-11-04T02:32:15;13.43;;;4.40;;
64641;SDS011;59936;51.490;5.436;2022-11-04T02:37:31;6.43;;;3.97;;
64641;SDS011;59936;51.490;5.436;2022-11-04T02:42:49;8.32;;;3.45;;
64641;SDS011;59936;51.490;5.436;2022-11-04T02:48:01;8.82;;;2.85;;
64641;SDS011;59936;51.490;5.436;2022-11-04T02:53:13;7.18;;;3.30;;
64641;SDS011;59936;51.490;5.436;2022-11-04T02:58:25;14.73;;;3.67;;
64641;SDS011;59936;51.490;5.436;2022-11-04T03:03:36;6.68;;;3.10;;
64641;SDS011;59936;51.490;5.436;2022-11-04T03:08:45;10.93;;;2.97;;
64641;SDS011;59936;51.490;5.436;2022-11-04T03:13:52;8.50;;;2.90;;
64641;SDS011;59936;51.490;5.436;2022-11-04T03:19:01;5.72;;;3.00;;
64641;SDS011;59936;51.490;5.436;2022-11-04T03:24:13;10.80;;;2.83;;
64641;SDS011;59936;51.490;5.436;2022-11-04T03:29:19;5.90;;;2.63;;
64641;SDS011;59936;51.490;5.436;2022-11-04T03:34:28;5.43;;;2.40;;
64641;SDS011;59936;51.490;5.436;2022-11-04T03:39:32;7.38;;;2.95;;
64641;SDS011;59936;51.490;5.436;2022-11-04T03:44:34;6.53;;;3.55;;
64641;SDS011;59936;51.490;5.436;2022-11-04T03:49:37;13.75;;;4.85;;
64641;SDS011;59936;51.490;5.436;2022-11-04T03:54:39;11.32;;;4.45;;
64641;SDS011;59936;51.490;5.436;2022-11-04T04:05:19;13.18;;;5.32;;
64641;SDS011;59936;51.490;5.436;2022-11-04T04:10:27;17.05;;;5.88;;
64641;SDS011;59936;51.490;5.436;2022-11-04T04:15:41;19.13;;;5.95;;
64641;SDS011;59936;51.490;5.436;2022-11-04T04:20:50;12.15;;;5.20;;
64641;SDS011;59936;51.490;5.436;2022-11-04T04:25:57;15.13;;;6.10;;
64641;SDS011;59936;51.490;5.436;2022-11-04T04:31:24;11.98;;;5.55;;
64641;SDS011;59936;51.490;5.436;2022-11-04T04:36:48;10.55;;;5.35;;
64641;SDS011;59936;51.490;5.436;2022-11-04T04:47:18;11.55;;;5.35;;
64641;SDS011;59936;51.490;5.436;2022-11-04T04:52:26;15.68;;;5.55;;
64641;SDS011;59936;51.490;5.436;2022-11-04T04:57:32;9.35;;;5.13;;
64641;SDS011;59936;51.490;5.436;2022-11-04T05:02:33;10.90;;;5.05;;
64641;SDS011;59936;51.490;5.436;2022-11-04T05:07:36;14.02;;;5.68;;
64641;SDS011;59936;51.490;5.436;2022-11-04T05:12:39;12.82;;;5.22;;
64641;SDS011;59936;51.490;5.436;2022-11-04T05:17:59;10.68;;;5.22;;
64641;SDS011;59936;51.490;5.436;2022-11-04T05:23:03;13.40;;;5.32;;
64641;SDS011;59936;51.490;5.436;2022-11-04T05:28:05;12.95;;;4.68;;
64641;SDS011;59936;51.490;5.436;2022-11-04T05:33:08;12.43;;;4.93;;
64641;SDS011;59936;51.490;5.436;2022-11-04T05:38:13;9.43;;;4.47;;
64641;SDS011;59936;51.490;5.436;2022-11-04T05:43:14;15.25;;;4.75;;
64641;SDS011;59936;51.490;5.436;2022-11-04T05:48:16;14.03;;;5.13;;
64641;SDS011;59936;51.490;5.436;2022-11-04T05:53:19;10.73;;;4.45;;
64641;SDS011;59936;51.490;5.436;2022-11-04T05:58:21;15.90;;;4.65;;
64641;SDS011;59936;51.490;5.436;2022-11-04T06:03:22;16.52;;;5.10;;
64641;SDS011;59936;51.490;5.436;2022-11-04T06:08:25;10.93;;;4.35;;
64641;SDS011;59936;51.490;5.436;2022-11-04T06:13:27;13.07;;;4.38;;
64641;SDS011;59936;51.490;5.436;2022-11-04T06:18:29;14.48;;;4.40;;
64641;SDS011;59936;51.490;5.436;2022-11-04T06:23:32;14.20;;;5.27;;
64641;SDS011;59936;51.490;5.436;2022-11-04T06:28:34;14.95;;;4.55;;
64641;SDS011;59936;51.490;5.436;2022-11-04T06:33:35;10.77;;;4.55;;
64641;SDS011;59936;51.490;5.436;2022-11-04T06:38:39;14.48;;;4.65;;
64641;SDS011;59936;51.490;5.436;2022-11-04T06:43:41;11.52;;;4.70;;
64641;SDS011;59936;51.490;5.436;2022-11-04T06:48:43;13.93;;;4.63;;
64641;SDS011;59936;51.490;5.436;2022-11-04T06:53:46;10.87;;;4.87;;
64641;SDS011;59936;51.490;5.436;2022-11-04T06:58:50;11.65;;;4.50;;
64641;SDS011;59936;51.490;5.436;2022-11-04T07:03:54;10.32;;;5.13;;
64641;SDS011;59936;51.490;5.436;2022-11-04T07:09:00;17.33;;;4.93;;
64641;SDS011;59936;51.490;5.436;2022-11-04T07:14:04;14.93;;;5.47;;
64641;SDS011;59936;51.490;5.436;2022-11-04T07:19:05;11.98;;;5.43;;
64641;SDS011;59936;51.490;5.436;2022-11-04T07:24:08;17.52;;;5.45;;
64641;SDS011;59936;51.490;5.436;2022-11-04T07:29:10;14.77;;;5.85;;
64641;SDS011;59936;51.490;5.436;2022-11-04T07:34:12;21.13;;;5.75;;
64641;SDS011;59936;51.490;5.436;2022-11-04T07:39:15;17.27;;;5.30;;
64641;SDS011;59936;51.490;5.436;2022-11-04T07:44:18;15.23;;;5.45;;
64641;SDS011;59936;51.490;5.436;2022-11-04T07:49:22;12.32;;;5.63;;
64641;SDS011;59936;51.490;5.436;2022-11-04T07:54:25;18.50;;;5.53;;
64641;SDS011;59936;51.490;5.436;2022-11-04T07:59:27;17.98;;;5.78;;
64641;SDS011;59936;51.490;5.436;2022-11-04T08:04:29;10.15;;;5.65;;
64641;SDS011;59936;51.490;5.436;2022-11-04T08:09:32;13.65;;;6.15;;
64641;SDS011;59936;51.490;5.436;2022-11-04T08:14:35;18.42;;;6.78;;
64641;SDS011;59936;51.490;5.436;2022-11-04T08:19:37;22.30;;;8.20;;
64641;SDS011;59936;51.490;5.436;2022-11-04T08:24:40;25.17;;;7.90;;
64641;SDS011;59936;51.490;5.436;2022-11-04T08:29:42;18.58;;;6.00;;
64641;SDS011;59936;51.490;5.436;2022-11-04T08:34:43;19.23;;;5.88;;
64641;SDS011;59936;51.490;5.436;2022-11-04T08:39:47;14.45;;;5.13;;
64641;SDS011;59936;51.490;5.436;2022-11-04T08:44:49;12.00;;;6.18;;
64641;SDS011;59936;51.490;5.436;2022-11-04T08:49:51;12.25;;;5.75;;
64641;SDS011;59936;51.490;5.436;2022-11-04T08:54:54;14.95;;;6.00;;
64641;SDS011;59936;51.490;5.436;2022-11-04T08:59:56;15.32;;;6.60;;
64641;SDS011;59936;51.490;5.436;2022-11-04T09:04:58;17.10;;;5.80;;
64641;SDS011;59936;51.490;5.436;2022-11-04T09:10:01;10.32;;;5.03;;
64641;SDS011;59936;51.490;5.436;2022-11-04T09:15:03;16.83;;;6.32;;
64641;SDS011;59936;51.490;5.436;2022-11-04T09:20:06;14.57;;;5.38;;
64641;SDS011;59936;51.490;5.436;2022-11-04T09:25:09;14.80;;;5.38;;
64641;SDS011;59936;51.490;5.436;2022-11-04T09:30:11;14.35;;;5.20;;
64641;SDS011;59936;51.490;5.436;2022-11-04T09:35:14;13.30;;;4.80;;
64641;SDS011;59936;51.490;5.436;2022-11-04T09:45:23;11.95;;;4.03;;
64641;SDS011;59936;51.490;5.436;2022-11-04T09:50:31;16.90;;;4.53;;
64641;SDS011;59936;51.490;5.436;2022-11-04T09:55:48;9.90;;;4.00;;
64641;SDS011;59936;51.490;5.436;2022-11-04T10:00:56;10.75;;;4.85;;
64641;SDS011;59936;51.490;5.436;2022-11-04T10:06:10;9.55;;;4.47;;
64641;SDS011;59936;51.490;5.436;2022-11-04T10:11:33;10.80;;;4.13;;
64641;SDS011;59936;51.490;5.436;2022-11-04T10:16:48;8.88;;;4.20;;
64641;SDS011;59936;51.490;5.436;2022-11-04T10:22:13;10.15;;;4.60;;
64641;SDS011;59936;51.490;5.436;2022-11-04T10:27:29;17.33;;;4.55;;
64641;SDS011;59936;51.490;5.436;2022-11-04T10:32:37;13.48;;;4.60;;
64641;SDS011;59936;51.490;5.436;2022-11-04T10:37:50;13.52;;;5.45;;
64641;SDS011;59936;51.490;5.436;2022-11-04T10:42:56;12.10;;;5.30;;
64641;SDS011;59936;51.490;5.436;2022-11-04T10:48:11;10.27;;;5.80;;
64641;SDS011;59936;51.490;5.436;2022-11-04T10:53:27;11.13;;;6.07;;
64641;SDS011;59936;51.490;5.436;2022-11-04T10:58:33;19.70;;;6.50;;
64641;SDS011;59936;51.490;5.436;2022-11-04T11:03:41;13.80;;;6.80;;
64641;SDS011;59936;51.490;5.436;2022-11-04T11:08:43;17.98;;;7.82;;
64641;SDS011;59936;51.490;5.436;2022-11-04T11:13:46;13.60;;;7.57;;
64641;SDS011;59936;51.490;5.436;2022-11-04T11:19:06;13.43;;;7.28;;
64641;SDS011;59936;51.490;5.436;2022-11-04T11:24:20;11.90;;;6.88;;
64641;SDS011;59936;51.490;5.436;2022-11-04T11:29:27;14.38;;;7.63;;
64641;SDS011;59936;51.490;5.436;2022-11-04T11:34:40;14.38;;;6.53;;
64641;SDS011;59936;51.490;5.436;2022-11-04T11:39:46;14.43;;;6.00;;
64641;SDS011;59936;51.490;5.436;2022-11-04T11:44:49;12.10;;;5.93;;
64641;SDS011;59936;51.490;5.436;2022-11-04T11:55:20;11.50;;;5.82;;
64641;SDS011;59936;51.490;5.436;2022-11-04T12:00:28;13.82;;;6.82;;
64641;SDS011;59936;51.490;5.436;2022-11-04T12:05:38;16.98;;;6.38;;
64641;SDS011;59936;51.490;5.436;2022-11-04T12:10:53;11.77;;;5.40;;
64641;SDS011;59936;51.490;5.436;2022-11-04T12:16:11;13.57;;;6.35;;
64641;SDS011;59936;51.490;5.436;2022-11-04T12:21:30;14.02;;;6.85;;
64641;SDS011;59936;51.490;5.436;2022-11-04T12:26:37;20.80;;;7.40;;
64641;SDS011;59936;51.490;5.436;2022-11-04T12:31:49;14.23;;;7.20;;
64641;SDS011;59936;51.490;5.436;2022-11-04T12:37:06;9.20;;;6.28;;
64641;SDS011;59936;51.490;5.436;2022-11-04T12:42:26;11.20;;;5.40;;
64641;SDS011;59936;51.490;5.436;2022-11-04T12:47:43;12.00;;;5.72;;
64641;SDS011;59936;51.490;5.436;2022-11-04T12:52:55;10.13;;;5.97;;
64641;SDS011;59936;51.490;5.436;2022-11-04T12:58:29;6.70;;;4.82;;
64641;SDS011;59936;51.490;5.436;2022-11-04T13:03:47;8.85;;;5.55;;
64641;SDS011;59936;51.490;5.436;2022-11-04T13:08:56;11.52;;;5.95;;
64641;SDS011;59936;51.490;5.436;2022-11-04T13:14:06;14.48;;;6.88;;
64641;SDS011;59936;51.490;5.436;2022-11-04T13:19:23;11.57;;;6.68;;
64641;SDS011;59936;51.490;5.436;2022-11-04T13:24:31;12.60;;;8.52;;
64641;SDS011;59936;51.490;5.436;2022-11-04T13:29:37;13.70;;;8.43;;
64641;SDS011;59936;51.490;5.436;2022-11-04T13:34:44;14.38;;;8.27;;
64641;SDS011;59936;51.490;5.436;2022-11-04T13:39:59;15.55;;;8.52;;
64641;SDS011;59936;51.490;5.436;2022-11-04T13:45:12;13.18;;;8.57;;
64641;SDS011;59936;51.490;5.436;2022-11-04T13:50:34;12.85;;;7.35;;
64641;SDS011;59936;51.490;5.436;2022-11-04T13:55:46;11.93;;;7.97;;
64641;SDS011;59936;51.490;5.436;2022-11-04T14:06:14;10.82;;;7.32;;
64641;SDS011;59936;51.490;5.436;2022-11-04T14:11:18;10.85;;;8.10;;
64641;SDS011;59936;51.490;5.436;2022-11-04T14:16:39;16.70;;;8.85;;
64641;SDS011;59936;51.490;5.436;2022-11-04T14:27:25;15.95;;;9.52;;
64641;SDS011;59936;51.490;5.436;2022-11-04T14:32:38;13.77;;;8.93;;
64641;SDS011;59936;51.490;5.436;2022-11-04T14:37:43;14.68;;;9.32;;
64641;SDS011;59936;51.490;5.436;2022-11-04T14:42:52;8.80;;;6.97;;
64641;SDS011;59936;51.490;5.436;2022-11-04T14:47:59;12.70;;;7.53;;
64641;SDS011;59936;51.490;5.436;2022-11-04T14:53:20;7.93;;;6.38;;
64641;SDS011;59936;51.490;5.436;2022-11-04T14:58:28;11.65;;;7.05;;
64641;SDS011;59936;51.490;5.436;2022-11-04T15:03:32;9.10;;;7.70;;
64641;SDS011;59936;51.490;5.436;2022-11-04T15:08:43;15.80;;;7.53;;
64641;SDS011;59936;51.490;5.436;2022-11-04T15:13:46;9.88;;;7.30;;
64641;SDS011;59936;51.490;5.436;2022-11-04T15:18:50;12.93;;;7.03;;
64641;SDS011;59936;51.490;5.436;2022-11-04T15:23:56;9.25;;;5.78;;
64641;SDS011;59936;51.490;5.436;2022-11-04T15:28:58;7.47;;;4.25;;
64641;SDS011;59936;51.490;5.436;2022-11-04T15:34:07;8.32;;;3.85;;
64641;SDS011;59936;51.490;5.436;2022-11-04T15:39:14;4.80;;;2.67;;
64641;SDS011;59936;51.490;5.436;2022-11-04T15:44:21;5.70;;;2.20;;
64641;SDS011;59936;51.490;5.436;2022-11-04T15:49:27;2.83;;;2.03;;
64641;SDS011;59936;51.490;5.436;2022-11-04T15:54:32;1.60;;;1.50;;
64641;SDS011;59936;51.490;5.436;2022-11-04T15:59:38;4.10;;;1.55;;
64641;SDS011;59936;51.490;5.436;2022-11-04T16:04:54;3.47;;;1.40;;
64641;SDS011;59936;51.490;5.436;2022-11-04T16:15:29;3.55;;;1.40;;
64641;SDS011;59936;51.490;5.436;2022-11-04T16:20:35;5.10;;;1.60;;
64641;SDS011;59936;51.490;5.436;2022-11-04T16:25:38;3.13;;;1.98;;
64641;SDS011;59936;51.490;5.436;2022-11-04T16:30:40;2.05;;;1.48;;
64641;SDS011;59936;51.490;5.436;2022-11-04T16:35:56;3.00;;;2.00;;
64641;SDS011;59936;51.490;5.436;2022-11-04T16:41:01;3.45;;;2.03;;
64641;SDS011;59936;51.490;5.436;2022-11-04T16:46:03;3.53;;;2.42;;
64641;SDS011;59936;51.490;5.436;2022-11-04T16:56:08;7.78;;;2.72;;
64641;SDS011;59936;51.490;5.436;2022-11-04T17:01:11;4.45;;;2.58;;
64641;SDS011;59936;51.490;5.436;2022-11-04T17:06:15;4.38;;;2.60;;
64641;SDS011;59936;51.490;5.436;2022-11-04T17:11:18;3.70;;;2.53;;
64641;SDS011;59936;51.490;5.436;2022-11-04T17:16:20;6.18;;;2.95;;
64641;SDS011;59936;51.490;5.436;2022-11-04T17:31:28;5.70;;;3.25;;
64641;SDS011;59936;51.490;5.436;2022-11-04T17:36:29;4.82;;;3.08;;
64641;SDS011;59936;51.490;5.436;2022-11-04T17:41:33;4.95;;;2.78;;
64641;SDS011;59936;51.490;5.436;2022-11-04T17:46:52;4.68;;;2.58;;
64641;SDS011;59936;51.490;5.436;2022-11-04T17:51:54;4.57;;;2.83;;
64641;SDS011;59936;51.490;5.436;2022-11-04T17:57:01;4.15;;;3.20;;
64641;SDS011;59936;51.490;5.436;2022-11-04T18:02:03;2.80;;;2.53;;
64641;SDS011;59936;51.490;5.436;2022-11-04T18:07:05;6.97;;;2.88;;
64641;SDS011;59936;51.490;5.436;2022-11-04T18:12:08;5.15;;;3.03;;
64641;SDS011;59936;51.490;5.436;2022-11-04T18:17:27;4.57;;;3.25;;
64641;SDS011;59936;51.490;5.436;2022-11-04T18:22:30;6.45;;;3.20;;
64641;SDS011;59936;51.490;5.436;2022-11-04T18:27:33;6.15;;;3.30;;
64641;SDS011;59936;51.490;5.436;2022-11-04T18:32:35;8.40;;;3.60;;
64641;SDS011;59936;51.490;5.436;2022-11-04T18:37:36;5.45;;;4.43;;
64641;SDS011;59936;51.490;5.436;2022-11-04T18:42:39;7.75;;;4.53;;
64641;SDS011;59936;51.490;5.436;2022-11-04T18:47:45;7.30;;;4.72;;
64641;SDS011;59936;51.490;5.436;2022-11-04T18:52:47;10.52;;;5.88;;
64641;SDS011;59936;51.490;5.436;2022-11-04T18:57:54;9.00;;;6.00;;
64641;SDS011;59936;51.490;5.436;2022-11-04T19:02:56;11.70;;;6.35;;
64641;SDS011;59936;51.490;5.436;2022-11-04T19:07:57;12.85;;;6.35;;
64641;SDS011;59936;51.490;5.436;2022-11-04T19:13:01;10.07;;;6.22;;
64641;SDS011;59936;51.490;5.436;2022-11-04T19:18:17;13.13;;;6.55;;
64641;SDS011;59936;51.490;5.436;2022-11-04T19:23:19;8.85;;;6.68;;
64641;SDS011;59936;51.490;5.436;2022-11-04T19:28:22;9.25;;;6.10;;
64641;SDS011;59936;51.490;5.436;2022-11-04T19:33:24;11.55;;;6.10;;
64641;SDS011;59936;51.490;5.436;2022-11-04T19:38:26;11.48;;;6.10;;
64641;SDS011;59936;51.490;5.436;2022-11-04T19:43:29;9.02;;;6.60;;
64641;SDS011;59936;51.490;5.436;2022-11-04T19:48:31;9.30;;;6.40;;
64641;SDS011;59936;51.490;5.436;2022-11-04T19:53:33;9.57;;;6.13;;
64641;SDS011;59936;51.490;5.436;2022-11-04T19:58:37;11.73;;;6.80;;
64641;SDS011;59936;51.490;5.436;2022-11-04T20:03:39;10.02;;;6.65;;
64641;SDS011;59936;51.490;5.436;2022-11-04T20:08:41;7.35;;;5.88;;
64641;SDS011;59936;51.490;5.436;2022-11-04T20:13:47;13.15;;;7.10;;
64641;SDS011;59936;51.490;5.436;2022-11-04T20:18:52;11.32;;;7.05;;
64641;SDS011;59936;51.490;5.436;2022-11-04T20:23:56;9.23;;;6.40;;
64641;SDS011;59936;51.490;5.436;2022-11-04T20:29:02;11.52;;;6.53;;
64641;SDS011;59936;51.490;5.436;2022-11-04T20:34:07;8.65;;;5.60;;
64641;SDS011;59936;51.490;5.436;2022-11-04T20:39:12;12.80;;;6.22;;
64641;SDS011;59936;51.490;5.436;2022-11-04T20:44:17;9.23;;;6.60;;
64641;SDS011;59936;51.490;5.436;2022-11-04T20:49:19;12.05;;;5.85;;
64641;SDS011;59936;51.490;5.436;2022-11-04T20:54:21;18.35;;;9.32;;
64641;SDS011;59936;51.490;5.436;2022-11-04T20:59:25;10.88;;;7.45;;
64641;SDS011;59936;51.490;5.436;2022-11-04T21:04:27;12.38;;;6.40;;
64641;SDS011;59936;51.490;5.436;2022-11-04T21:09:29;10.10;;;6.10;;
64641;SDS011;59936;51.490;5.436;2022-11-04T21:14:32;10.88;;;6.22;;
64641;SDS011;59936;51.490;5.436;2022-11-04T21:19:34;9.00;;;5.68;;
64641;SDS011;59936;51.490;5.436;2022-11-04T21:24:36;7.97;;;5.80;;
64641;SDS011;59936;51.490;5.436;2022-11-04T21:29:41;14.50;;;5.80;;
64641;SDS011;59936;51.490;5.436;2022-11-04T21:34:42;12.85;;;6.82;;
64641;SDS011;59936;51.490;5.436;2022-11-04T21:39:44;10.70;;;7.18;;
64641;SDS011;59936;51.490;5.436;2022-11-04T21:44:47;12.20;;;7.40;;
64641;SDS011;59936;51.490;5.436;2022-11-04T21:49:49;12.10;;;7.30;;
64641;SDS011;59936;51.490;5.436;2022-11-04T21:54:50;14.90;;;6.97;;
64641;SDS011;59936;51.490;5.436;2022-11-04T21:59:53;9.65;;;6.80;;
64641;SDS011;59936;51.490;5.436;2022-11-04T22:04:55;8.88;;;5.95;;
64641;SDS011;59936;51.490;5.436;2022-11-04T22:09:57;11.68;;;5.72;;
64641;SDS011;59936;51.490;5.436;2022-11-04T22:15:00;6.43;;;5.28;;
64641;SDS011;59936;51.490;5.436;2022-11-04T22:20:02;11.20;;;4.80;;
64641;SDS011;59936;51.490;5.436;2022-11-04T22:25:05;8.45;;;4.72;;
64641;SDS011;59936;51.490;5.436;2022-11-04T22:30:13;4.90;;;4.43;;
64641;SDS011;59936;51.490;5.436;2022-11-04T22:35:14;5.60;;;4.63;;
64641;SDS011;59936;51.490;5.436;2022-11-04T22:40:16;4.93;;;4.47;;
64641;SDS011;59936;51.490;5.436;2022-11-04T22:45:19;6.63;;;4.10;;
64641;SDS011;59936;51.490;5.436;2022-11-04T22:50:21;7.80;;;4.63;;
64641;SDS011;59936;51.490;5.436;2022-11-04T22:55:22;6.53;;;4.50;;
64641;SDS011;59936;51.490;5.436;2022-11-04T23:00:26;8.18;;;4.75;;
64641;SDS011;59936;51.490;5.436;2022-11-04T23:05:29;6.00;;;3.97;;
64641;SDS011;59936;51.490;5.436;2022-11-04T23:10:31;5.75;;;3.80;;
64641;SDS011;59936;51.490;5.436;2022-11-04T23:15:52;7.20;;;4.07;;
64641;SDS011;59936;51.490;5.436;2022-11-04T23:21:12;12.30;;;4.53;;
64641;SDS011;59936;51.490;5.436;2022-11-04T23:26:34;9.55;;;4.80;;
64641;SDS011;59936;51.490;5.436;2022-11-04T23:31:37;9.45;;;4.95;;
64641;SDS011;59936;51.490;5.436;2022-11-04T23:36:39;6.25;;;4.18;;
64641;SDS011;59936;51.490;5.436;2022-11-04T23:42:11;9.23;;;4.07;;
64641;SDS011;59936;51.490;5.436;2022-11-04T23:47:19;8.07;;;3.72;;
64641;SDS011;59936;51.490;5.436;2022-11-04T23:52:39;7.25;;;3.58;;
64641;SDS011;59936;51.490;5.436;2022-11-04T23:57:58;6.25;;;3.95;;
